Time;durP1;ratioP1;P1;durP2;ratioP2;P2;SDS_P1;SDS_P2;PMS_P1;PMS_P2;Temp;Humidity;BMP_temperature;BMP_pressure;BME280_temperature;BME280_humidity;BME280_pressure;Samples;Min_cycle;Max_cycle;Signal;HPM_P1;HPM_P2
2022/02/28 00:01:58;;;;;;;12.25;5.97;;;;;;;0.51;96.77;100506.28;5030773;28;20041;-20
2022/02/28 00:04:25;;;;;;;10.88;5.72;;;;;;;0.61;95.58;100512.34;5013067;28;20869;-21
2022/02/28 00:06:51;;;;;;;12.82;6.65;;;;;;;0.78;95.91;100518.66;5013110;28;20072;-21
2022/02/28 00:09:16;;;;;;;11.32;6.38;;;;;;;1.00;93.94;100512.19;5030717;28;20026;-21
2022/02/28 00:11:42;;;;;;;10.43;5.55;;;;;;;0.56;95.35;100504.91;5030640;28;20050;-21
2022/02/28 00:14:07;;;;;;;10.90;6.15;;;;;;;0.65;95.25;100516.31;5013021;28;20103;-21
2022/02/28 00:16:33;;;;;;;8.98;5.97;;;;;;;0.67;95.06;100506.50;5030488;28;20036;-21
2022/02/28 00:18:58;;;;;;;10.77;5.47;;;;;;;0.63;94.55;100486.78;5030354;28;20029;-20
2022/02/28 00:21:23;;;;;;;9.38;4.88;;;;;;;0.76;94.39;100508.28;5030538;28;20550;-20
2022/02/28 00:23:49;;;;;;;11.23;6.03;;;;;;;0.88;93.77;100497.59;5030395;28;20030;-20
2022/02/28 00:26:14;;;;;;;9.05;5.60;;;;;;;0.70;93.41;100484.41;5012756;28;20052;-20
2022/02/28 00:28:40;;;;;;;9.93;5.68;;;;;;;0.69;94.61;100488.81;5012334;28;20021;-20
2022/02/28 00:31:06;;;;;;;8.55;5.85;;;;;;;0.84;94.35;100498.84;5030775;28;20044;-20
2022/02/28 00:33:31;;;;;;;11.77;7.00;;;;;;;0.96;93.26;100495.06;5030470;28;20409;-20
2022/02/28 00:35:57;;;;;;;9.95;6.15;;;;;;;0.93;93.53;100479.59;5030474;28;20033;-20
2022/02/28 00:38:23;;;;;;;8.77;4.90;;;;;;;0.71;94.07;100470.31;5029404;28;20025;-20
2022/02/28 00:40:48;;;;;;;8.68;5.13;;;;;;;0.85;93.55;100466.38;5011884;28;20095;-20
2022/02/28 00:43:14;;;;;;;7.03;4.30;;;;;;;0.75;94.44;100488.25;4994839;28;20041;-20
2022/02/28 00:45:39;;;;;;;7.45;4.63;;;;;;;0.85;93.87;100488.19;5012379;28;20044;-20
2022/02/28 00:48:05;;;;;;;7.18;4.30;;;;;;;0.92;93.68;100477.94;5030093;28;20033;-19
2022/02/28 00:50:30;;;;;;;7.32;4.75;;;;;;;0.80;94.46;100475.53;5030216;28;20041;-20
2022/02/28 00:52:55;;;;;;;7.07;4.45;;;;;;;0.70;94.00;100474.72;5030243;28;20138;-20
2022/02/28 00:55:21;;;;;;;7.93;3.65;;;;;;;0.83;94.39;100492.78;5030018;28;20041;-20
2022/02/28 00:57:47;;;;;;;6.53;4.25;;;;;;;0.93;94.39;100479.59;5029731;28;20030;-20
2022/02/28 01:00:14;;;;;;;6.22;3.75;;;;;;;0.95;93.40;100475.03;5030088;28;20033;-20
2022/02/28 01:02:39;;;;;;;7.18;4.32;;;;;;;0.70;93.88;100482.63;5029811;28;20541;-20
2022/02/28 01:05:06;;;;;;;6.25;4.00;;;;;;;0.89;93.95;100484.31;5029539;28;20037;-21
2022/02/28 01:07:31;;;;;;;5.85;3.67;;;;;;;1.01;93.86;100461.31;5029570;28;20036;-20
2022/02/28 01:09:56;;;;;;;5.95;3.50;;;;;;;0.54;94.72;100464.84;5029626;28;20034;-20
2022/02/28 01:12:22;;;;;;;7.78;4.00;;;;;;;0.80;94.79;100472.91;5011235;28;20060;-20
2022/02/28 01:14:48;;;;;;;4.50;3.10;;;;;;;0.84;94.47;100470.81;5011393;28;20425;-20
2022/02/28 01:17:14;;;;;;;6.55;3.17;;;;;;;1.06;93.34;100460.88;5011504;28;20037;-21
2022/02/28 01:19:41;;;;;;;5.78;3.55;;;;;;;0.78;93.17;100451.22;5029696;28;20148;-19
2022/02/28 01:22:09;;;;;;;6.43;3.42;;;;;;;0.86;93.70;100470.63;5011582;28;20063;-21
2022/02/28 01:24:38;;;;;;;6.05;3.55;;;;;;;0.64;93.78;100448.25;5011794;28;20021;-20
2022/02/28 01:27:04;;;;;;;6.03;4.05;;;;;;;0.53;95.15;100446.59;5028776;28;20033;-20
2022/02/28 01:29:29;;;;;;;8.30;5.15;;;;;;;0.64;95.86;100471.88;5029161;28;20083;-20
2022/02/28 01:31:55;;;;;;;6.70;3.88;;;;;;;0.70;95.16;100466.84;5011499;28;20034;-20
2022/02/28 01:34:20;;;;;;;6.55;4.32;;;;;;;0.62;95.29;100466.75;5029000;28;20029;-20
2022/02/28 01:36:46;;;;;;;6.30;4.38;;;;;;;0.71;95.30;100468.50;5029265;28;20052;-20
2022/02/28 01:39:11;;;;;;;5.70;3.65;;;;;;;0.83;94.15;100465.69;5028765;28;20517;-20
2022/02/28 01:41:37;;;;;;;5.95;3.45;;;;;;;0.80;94.25;100459.75;5011060;28;20025;-20
2022/02/28 01:44:06;;;;;;;4.88;3.00;;;;;;;1.07;93.04;100463.34;5029064;28;20041;-20
2022/02/28 01:46:31;;;;;;;6.13;3.03;;;;;;;1.07;92.98;100460.72;5028989;28;20519;-20
2022/02/28 01:48:57;;;;;;;6.53;3.58;;;;;;;1.10;93.12;100465.66;5028740;28;20030;-21
2022/02/28 01:51:22;;;;;;;4.75;3.10;;;;;;;1.17;92.53;100466.75;5028480;28;20037;-20
2022/02/28 01:53:48;;;;;;;4.07;2.60;;;;;;;1.03;92.06;100453.28;5028725;28;20033;-20
2022/02/28 01:56:14;;;;;;;4.57;2.70;;;;;;;0.86;92.68;100457.50;5010462;28;20068;-20
2022/02/28 01:58:39;;;;;;;4.53;2.50;;;;;;;0.64;94.54;100459.56;5028904;28;20033;-20
2022/02/28 02:01:05;;;;;;;4.53;2.97;;;;;;;0.47;95.24;100462.94;5010733;28;20120;-21
2022/02/28 02:03:31;;;;;;;6.25;3.20;;;;;;;0.42;95.87;100455.50;4994431;28;20552;-20
2022/02/28 02:05:56;;;;;;;6.13;3.40;;;;;;;0.68;94.99;100433.88;5028676;28;20096;-20
2022/02/28 02:08:21;;;;;;;5.68;3.60;;;;;;;0.79;94.15;100452.03;5010608;28;20091;-20
2022/02/28 02:10:47;;;;;;;6.28;3.75;;;;;;;0.87;94.27;100443.44;5028024;28;20060;-20
2022/02/28 02:13:13;;;;;;;7.32;4.10;;;;;;;0.90;93.88;100456.25;4994208;28;20068;-20
2022/02/28 02:15:39;;;;;;;7.32;4.40;;;;;;;0.89;93.65;100457.25;5028386;28;20029;-20
2022/02/28 02:18:05;;;;;;;6.90;3.42;;;;;;;0.72;94.47;100445.72;4994242;28;20037;-20
2022/02/28 02:20:34;;;;;;;7.32;3.97;;;;;;;0.53;95.35;100446.59;5010615;28;20029;-20
2022/02/28 02:23:08;;;;;;;7.25;4.13;;;;;;;0.77;94.73;100446.09;4994550;28;20034;-20
2022/02/28 02:25:34;;;;;;;6.72;4.18;;;;;;;0.62;95.30;100424.75;5010780;28;20126;-20
2022/02/28 02:28:00;;;;;;;7.72;4.65;;;;;;;0.69;95.59;100446.81;5010264;28;20042;-20
2022/02/28 02:30:25;;;;;;;8.05;4.72;;;;;;;0.59;95.71;100441.63;5028482;28;20036;-20
2022/02/28 02:32:51;;;;;;;9.00;5.35;;;;;;;0.62;95.06;100440.50;5010366;28;20033;-20
2022/02/28 02:35:16;;;;;;;8.18;5.13;;;;;;;0.72;95.41;100428.16;5028273;28;20416;-20
2022/02/28 02:37:42;;;;;;;8.93;5.47;;;;;;;0.87;94.92;100438.19;5028208;28;20037;-21
2022/02/28 02:40:08;;;;;;;8.77;5.03;;;;;;;0.78;94.79;100440.72;5027820;28;20095;-20
2022/02/28 02:42:33;;;;;;;8.60;5.38;;;;;;;0.90;93.87;100432.63;5010477;28;20433;-21
2022/02/28 02:44:59;;;;;;;8.48;5.15;;;;;;;0.92;93.35;100430.66;5028186;28;20084;-21
2022/02/28 02:47:24;;;;;;;8.88;5.28;;;;;;;0.90;93.37;100430.84;5028236;28;20030;-20
2022/02/28 02:49:50;;;;;;;10.05;6.20;;;;;;;0.92;93.77;100420.16;5010227;28;20026;-20
2022/02/28 02:52:15;;;;;;;8.30;4.95;;;;;;;0.77;94.02;100417.22;5028000;28;20045;-20
2022/02/28 02:54:41;;;;;;;9.25;5.90;;;;;;;0.86;94.88;100426.84;5027938;28;20091;-22
2022/02/28 02:57:06;;;;;;;10.48;6.05;;;;;;;0.92;93.50;100425.41;5027751;28;20060;-20
2022/02/28 02:59:31;;;;;;;11.07;5.80;;;;;;;0.91;93.77;100426.41;5010312;28;20456;-20
2022/02/28 03:01:57;;;;;;;11.00;5.78;;;;;;;0.99;93.05;100429.13;5028231;28;20049;-21
2022/02/28 03:04:22;;;;;;;10.77;6.38;;;;;;;1.00;92.87;100422.88;5031772;28;20266;-20
2022/02/28 03:06:48;;;;;;;10.45;6.38;;;;;;;1.00;92.84;100422.88;5031605;28;20033;-20
2022/02/28 03:09:14;;;;;;;9.95;6.32;;;;;;;0.71;93.78;100418.63;5031614;28;20033;-20
2022/02/28 03:11:44;;;;;;;7.07;4.43;;;;;;;0.44;94.97;100397.63;5013616;28;20406;-21
2022/02/28 03:14:10;;;;;;;8.85;4.60;;;;;;;0.35;95.98;100394.91;5014116;28;20029;-20
2022/02/28 03:16:35;;;;;;;8.40;5.07;;;;;;;0.39;97.31;100417.25;5013857;28;20033;-20
2022/02/28 03:19:01;;;;;;;9.75;5.85;;;;;;;0.27;97.37;100413.16;5031321;28;20054;-20
2022/02/28 03:21:26;;;;;;;8.82;5.60;;;;;;;0.36;98.16;100412.28;5031735;28;20044;-21
2022/02/28 03:23:52;;;;;;;10.18;5.82;;;;;;;0.27;97.80;100420.22;5013657;28;20049;-20
2022/02/28 03:26:17;;;;;;;10.27;6.30;;;;;;;0.49;97.41;100413.75;4997692;28;20030;-20
2022/02/28 03:28:43;;;;;;;9.90;5.00;;;;;;;0.66;96.54;100420.06;5013933;28;20033;-20
2022/02/28 03:31:08;;;;;;;9.48;5.68;;;;;;;0.77;95.18;100397.03;5013659;28;20037;-20
2022/02/28 03:33:34;;;;;;;8.38;5.40;;;;;;;1.12;93.80;100426.94;5031386;28;20460;-20
2022/02/28 03:35:59;;;;;;;8.88;5.05;;;;;;;1.55;92.75;100428.03;5031618;28;20029;-20
2022/02/28 03:38:25;;;;;;;8.27;4.88;;;;;;;1.65;90.78;100422.69;5031335;28;20025;-21
2022/02/28 03:40:51;;;;;;;6.63;4.00;;;;;;;1.47;90.05;100414.81;5031191;28;20033;-20
2022/02/28 03:43:17;;;;;;;7.22;4.22;;;;;;;1.23;91.79;100423.31;5013758;28;20136;-20
2022/02/28 03:45:42;;;;;;;6.75;4.05;;;;;;;0.73;93.85;100421.09;5031258;28;20117;-20
2022/02/28 03:48:08;;;;;;;5.22;3.28;;;;;;;0.60;95.27;100426.72;5031274;28;20030;-20
2022/02/28 03:50:33;;;;;;;4.68;2.92;;;;;;;0.45;95.87;100428.13;5013235;28;20493;-21
2022/02/28 03:52:58;;;;;;;5.28;3.42;;;;;;;0.52;96.02;100423.97;5012969;28;20025;-20
2022/02/28 03:55:24;;;;;;;6.60;4.10;;;;;;;0.91;95.13;100413.28;5031340;28;20464;-20
2022/02/28 03:57:49;;;;;;;8.38;4.50;;;;;;;1.14;94.19;100429.44;5013184;28;20184;-20
2022/02/28 04:00:15;;;;;;;7.45;4.75;;;;;;;1.19;93.06;100435.91;5031052;28;20029;-20
2022/02/28 04:02:41;;;;;;;9.60;6.32;;;;;;;1.35;91.28;100427.34;5030826;28;20409;-21
2022/02/28 04:05:06;;;;;;;13.55;7.70;;;;;;;1.15;91.85;100416.16;5012774;28;20032;-20
2022/02/28 04:07:32;;;;;;;17.77;9.32;;;;;;;1.42;90.64;100443.34;5030457;28;20037;-20
2022/02/28 04:09:57;;;;;;;42.92;18.95;;;;;;;1.25;90.39;100425.75;5013302;28;20052;-20
2022/02/28 04:12:23;;;;;;;11.15;6.88;;;;;;;1.30;91.17;100444.53;5030522;28;20517;-20
2022/02/28 04:14:48;;;;;;;7.72;4.93;;;;;;;1.43;89.25;100439.75;5030155;28;20037;-20
2022/02/28 04:17:14;;;;;;;9.65;5.82;;;;;;;1.53;89.67;100444.91;5030657;28;20087;-20
2022/02/28 04:19:39;;;;;;;9.52;6.20;;;;;;;1.79;88.53;100429.19;5012884;28;20504;-20
2022/02/28 04:22:05;;;;;;;33.45;19.40;;;;;;;1.80;88.15;100444.00;5012866;28;20061;-20
2022/02/28 04:24:30;;;;;;;8.13;4.95;;;;;;;1.64;88.87;100444.69;5030261;28;20041;-21
2022/02/28 04:26:57;;;;;;;7.90;4.75;;;;;;;1.62;88.79;100423.00;5030306;28;20513;-20
2022/02/28 04:29:23;;;;;;;8.35;5.38;;;;;;;1.27;90.04;100410.66;5030796;28;20490;-20
2022/02/28 04:31:48;;;;;;;7.07;4.95;;;;;;;0.97;91.42;100415.31;5012779;28;20049;-21
2022/02/28 04:34:14;;;;;;;10.65;6.07;;;;;;;1.01;92.02;100435.06;5012475;28;20495;-20
2022/02/28 04:36:39;;;;;;;16.48;10.02;;;;;;;1.05;92.81;100431.16;5030145;28;20045;-20
2022/02/28 04:39:05;;;;;;;11.20;6.93;;;;;;;0.94;92.10;100428.72;5012470;28;20033;-21
2022/02/28 04:41:30;;;;;;;12.93;7.97;;;;;;;0.71;94.39;100418.63;5030488;28;20111;-20
2022/02/28 04:43:56;;;;;;;12.15;8.20;;;;;;;0.85;94.66;100434.88;4996135;28;20482;-20
2022/02/28 04:46:21;;;;;;;10.70;7.90;;;;;;;0.83;94.04;100431.56;5029066;28;20034;-21
2022/02/28 04:48:47;;;;;;;12.07;8.63;;;;;;;0.88;94.18;100434.56;5029339;28;20033;-22
2022/02/28 04:51:12;;;;;;;13.15;9.20;;;;;;;0.67;95.33;100438.25;5011818;28;20523;-20
2022/02/28 04:53:38;;;;;;;10.43;7.88;;;;;;;0.99;95.10;100439.63;5028959;28;20033;-20
2022/02/28 04:56:03;;;;;;;11.80;7.30;;;;;;;1.27;92.91;100455.34;5012157;28;20104;-20
2022/02/28 04:58:29;;;;;;;9.40;5.63;;;;;;;1.39;92.14;100441.03;5029899;28;20030;-20
2022/02/28 05:00:54;;;;;;;8.57;5.30;;;;;;;1.55;91.31;100432.44;5029714;28;20057;-21
2022/02/28 05:03:20;;;;;;;13.95;8.95;;;;;;;1.33;91.22;100434.56;5029564;28;20029;-20
2022/02/28 05:05:45;;;;;;;10.70;7.80;;;;;;;1.27;91.49;100444.81;5029517;28;20041;-20
2022/02/28 05:08:11;;;;;;;15.00;10.07;;;;;;;1.26;91.16;100448.44;5029992;28;20029;-20
2022/02/28 05:10:36;;;;;;;15.80;11.85;;;;;;;1.33;91.81;100452.97;5029802;28;20500;-20
2022/02/28 05:13:02;;;;;;;10.48;7.75;;;;;;;1.52;91.32;100465.13;5011430;28;20099;-19
2022/02/28 05:15:27;;;;;;;8.07;5.72;;;;;;;1.45;90.54;100458.81;5029563;28;20398;-20
2022/02/28 05:17:53;;;;;;;13.20;8.00;;;;;;;1.28;90.33;100443.88;5029633;28;20033;-21
2022/02/28 05:20:18;;;;;;;10.70;6.97;;;;;;;1.14;91.83;100467.03;5029415;28;20030;-20
2022/02/28 05:22:44;;;;;;;10.18;6.63;;;;;;;1.09;92.74;100471.09;5029601;28;20448;-20
2022/02/28 05:25:10;;;;;;;9.23;6.00;;;;;;;1.43;92.54;100476.56;5028503;28;20512;-20
2022/02/28 05:27:39;;;;;;;8.10;5.68;;;;;;;1.72;91.19;100480.75;5029802;28;20037;-20
2022/02/28 05:30:05;;;;;;;9.73;5.88;;;;;;;1.83;89.27;100456.84;5029403;28;20025;-20
2022/02/28 05:32:31;;;;;;;8.15;5.20;;;;;;;2.16;87.80;100483.38;5011409;28;20033;-20
2022/02/28 05:34:56;;;;;;;8.20;4.80;;;;;;;2.19;87.38;100483.09;5028684;28;20026;-21
2022/02/28 05:37:22;;;;;;;6.88;4.55;;;;;;;2.28;86.33;100490.06;5029110;28;20033;-20
2022/02/28 05:39:47;;;;;;;7.55;4.28;;;;;;;2.37;86.12;100490.91;5029165;28;20046;-21
2022/02/28 05:42:13;;;;;;;8.27;4.95;;;;;;;2.31;85.91;100488.91;5029246;28;20429;-20
2022/02/28 05:44:38;;;;;;;7.07;4.25;;;;;;;2.35;85.92;100493.72;5028512;28;20482;-21
2022/02/28 05:47:04;;;;;;;8.10;4.85;;;;;;;2.41;86.17;100497.53;5028545;28;20033;-20
2022/02/28 05:49:29;;;;;;;7.32;4.85;;;;;;;2.49;85.30;100499.38;5010483;28;20041;-21
2022/02/28 05:51:55;;;;;;;7.15;4.90;;;;;;;2.33;85.16;100493.06;5028266;28;20030;-20
2022/02/28 05:54:20;;;;;;;9.13;4.82;;;;;;;2.22;85.91;100504.66;5011111;28;20551;-20
2022/02/28 05:56:46;;;;;;;7.55;5.05;;;;;;;2.14;86.17;100507.22;5028581;28;20030;-20
2022/02/28 05:59:11;;;;;;;7.90;4.57;;;;;;;2.25;85.97;100508.78;5028446;28;20034;-20
2022/02/28 06:01:37;;;;;;;6.75;4.50;;;;;;;2.19;86.46;100509.41;5028507;28;20037;-20
2022/02/28 06:04:03;;;;;;;7.22;4.45;;;;;;;1.99;86.84;100483.28;5028311;28;20492;-20
2022/02/28 06:06:29;;;;;;;8.02;4.43;;;;;;;2.24;86.51;100515.03;5028932;28;20132;-20
2022/02/28 06:08:55;;;;;;;8.73;5.28;;;;;;;2.18;86.35;100518.25;5010392;28;20033;-20
2022/02/28 06:11:21;;;;;;;8.05;4.82;;;;;;;1.91;86.86;100488.47;5010000;28;20036;-21
2022/02/28 06:13:46;;;;;;;8.32;5.68;;;;;;;2.06;87.12;100519.50;5028263;28;20053;-20
2022/02/28 06:16:11;;;;;;;8.27;5.18;;;;;;;2.01;86.10;100506.81;5028187;28;20040;-20
2022/02/28 06:18:37;;;;;;;8.57;5.85;;;;;;;2.27;87.02;100527.03;5010271;28;20033;-20
2022/02/28 06:21:02;;;;;;;10.32;7.00;;;;;;;2.26;86.87;100526.22;5027980;28;20037;-20
2022/02/28 06:23:28;;;;;;;13.95;9.15;;;;;;;2.45;86.13;100532.28;5028581;28;20477;-20
2022/02/28 06:25:54;;;;;;;10.77;7.00;;;;;;;2.32;85.35;100504.56;5028085;28;20045;-22
2022/02/28 06:28:20;;;;;;;8.88;6.25;;;;;;;2.77;85.21;100547.44;5028207;28;20037;-20
2022/02/28 06:30:46;;;;;;;9.05;5.85;;;;;;;2.64;84.47;100542.63;5027912;28;20068;-20
2022/02/28 06:33:11;;;;;;;7.90;5.32;;;;;;;2.35;84.99;100535.84;5010069;28;20072;-20
2022/02/28 06:35:37;;;;;;;10.15;5.80;;;;;;;2.44;85.74;100543.78;5027869;28;20673;-20
2022/02/28 06:38:03;;;;;;;8.95;6.55;;;;;;;2.54;85.43;100547.16;5028184;28;20033;-20
2022/02/28 06:40:29;;;;;;;9.70;6.13;;;;;;;2.37;85.96;100554.94;5028201;28;20041;-21
2022/02/28 06:42:54;;;;;;;11.02;7.50;;;;;;;2.37;87.46;100543.56;5009968;28;20032;-21
2022/02/28 06:45:24;;;;;;;10.90;7.72;;;;;;;2.32;86.83;100520.34;5028246;28;20040;-21
2022/02/28 06:47:51;;;;;;;11.77;7.75;;;;;;;2.73;85.57;100544.28;5027555;28;20132;-20
2022/02/28 06:50:16;;;;;;;11.93;8.50;;;;;;;2.74;85.22;100530.16;5010158;28;20025;-20
2022/02/28 06:52:42;;;;;;;14.68;10.80;;;;;;;3.03;83.60;100547.44;4993593;28;20417;-21
2022/02/28 06:55:07;;;;;;;16.90;12.25;;;;;;;2.82;84.42;100550.47;5027475;28;20474;-20
2022/02/28 06:57:33;;;;;;;16.35;10.77;;;;;;;2.65;84.76;100538.16;5027522;28;20126;-20
2022/02/28 06:59:58;;;;;;;15.52;9.75;;;;;;;2.72;84.85;100547.09;5009695;28;20033;-20
2022/02/28 07:02:24;;;;;;;12.60;8.88;;;;;;;2.96;85.02;100555.16;5027811;28;20042;-20
2022/02/28 07:04:49;;;;;;;12.10;8.45;;;;;;;3.13;83.94;100555.22;5027785;28;20037;-19
2022/02/28 07:07:16;;;;;;;11.32;8.32;;;;;;;3.35;82.83;100569.63;5028250;28;20037;-21
2022/02/28 07:09:43;;;;;;;10.13;7.10;;;;;;;3.00;83.93;100567.03;5009891;28;20037;-20
2022/02/28 07:12:10;;;;;;;9.45;7.10;;;;;;;3.42;82.89;100570.63;5027742;28;20049;-20
2022/02/28 07:14:36;;;;;;;11.80;7.50;;;;;;;3.26;82.62;100571.41;5026953;28;20029;-20
2022/02/28 07:17:02;;;;;;;21.25;9.13;;;;;;;3.09;83.69;100565.25;5009252;28;20116;-21
2022/02/28 07:19:27;;;;;;;34.30;12.70;;;;;;;3.15;83.13;100569.88;5009767;28;20160;-20
2022/02/28 07:21:53;;;;;;;52.67;18.77;;;;;;;3.31;82.87;100573.56;5027968;28;20029;-21
2022/02/28 07:24:18;;;;;;;43.38;18.65;;;;;;;3.29;82.81;100571.09;5027465;28;20466;-20
2022/02/28 07:26:44;;;;;;;28.33;12.52;;;;;;;3.28;82.95;100558.06;5010045;28;20034;-20
2022/02/28 07:29:09;;;;;;;16.63;8.13;;;;;;;3.57;81.95;100574.28;5026874;28;20108;-21
2022/02/28 07:31:35;;;;;;;32.40;15.20;;;;;;;3.47;82.05;100575.44;5027054;28;20025;-20
2022/02/28 07:34:01;;;;;;;18.20;11.43;;;;;;;3.81;80.52;100580.63;5009904;28;20044;-20
2022/02/28 07:36:27;;;;;;;16.20;10.85;;;;;;;3.79;81.10;100587.88;5009920;28;20056;-20
2022/02/28 07:38:53;;;;;;;20.02;10.52;;;;;;;3.70;81.05;100586.19;5027423;28;20047;-21
2022/02/28 07:41:18;;;;;;;15.82;9.57;;;;;;;3.88;80.00;100591.34;5027063;28;20030;-20
2022/02/28 07:43:44;;;;;;;17.85;9.70;;;;;;;3.88;79.68;100591.34;5027261;28;20022;-20
2022/02/28 07:46:09;;;;;;;11.98;7.97;;;;;;;4.23;79.25;100588.44;5027299;28;20037;-20
2022/02/28 07:48:34;;;;;;;20.83;11.13;;;;;;;4.13;78.53;100594.88;5011146;28;20870;-20
2022/02/28 07:51:00;;;;;;;28.85;13.07;;;;;;;3.97;78.39;100596.50;4996896;28;20033;-20
2022/02/28 07:53:26;;;;;;;21.88;10.85;;;;;;;3.48;81.08;100591.09;5030807;28;20033;-20
2022/02/28 07:55:51;;;;;;;23.88;11.55;;;;;;;3.30;81.85;100591.19;5030540;28;20033;-20
2022/02/28 07:58:17;;;;;;;19.73;9.55;;;;;;;3.40;82.15;100598.97;5030846;28;20029;-20
2022/02/28 08:00:42;;;;;;;14.38;9.27;;;;;;;3.58;80.59;100601.53;4996966;28;20060;-20
2022/02/28 08:03:08;;;;;;;12.35;7.97;;;;;;;3.45;81.29;100596.66;5012483;28;20027;-20
2022/02/28 08:05:33;;;;;;;9.48;6.35;;;;;;;3.66;81.32;100592.78;5031047;28;20033;-20
2022/02/28 08:07:58;;;;;;;12.57;7.47;;;;;;;3.45;81.06;100601.94;5012803;28;20033;-20
2022/02/28 08:10:24;;;;;;;9.68;5.90;;;;;;;3.16;82.24;100595.25;5030594;28;20033;-20
2022/02/28 08:12:49;;;;;;;9.90;5.75;;;;;;;2.80;83.62;100590.13;5030343;28;20053;-20
2022/02/28 08:15:15;;;;;;;11.10;6.32;;;;;;;3.29;82.49;100596.59;5012423;28;20033;-20
2022/02/28 08:17:40;;;;;;;10.70;7.50;;;;;;;3.18;82.26;100585.38;5012430;28;20029;-19
2022/02/28 08:20:07;;;;;;;15.10;8.45;;;;;;;3.60;81.77;100618.00;5012300;28;20036;-20
2022/02/28 08:22:32;;;;;;;16.00;10.45;;;;;;;3.50;80.96;100580.41;5030523;28;20037;-20
2022/02/28 08:24:58;;;;;;;14.05;9.35;;;;;;;3.65;80.83;100614.88;5012030;28;20026;-20
2022/02/28 08:27:24;;;;;;;10.05;6.82;;;;;;;3.47;81.20;100604.44;5030365;28;20034;-21
2022/02/28 08:29:54;;;;;;;10.88;6.60;;;;;;;3.31;81.55;100610.47;5030036;28;20041;-20
2022/02/28 08:32:20;;;;;;;9.43;6.20;;;;;;;3.37;81.32;100600.13;5030448;28;20037;-20
2022/02/28 08:34:46;;;;;;;10.52;6.50;;;;;;;3.18;82.14;100603.00;5030136;28;20025;-21
2022/02/28 08:37:11;;;;;;;10.35;6.82;;;;;;;3.14;81.67;100594.56;5029953;28;20476;-20
2022/02/28 08:39:37;;;;;;;10.93;7.70;;;;;;;3.61;81.48;100602.00;5030094;28;20033;-20
2022/02/28 08:42:02;;;;;;;9.93;6.38;;;;;;;4.21;79.13;100608.09;5029980;28;20025;-20
2022/02/28 08:44:28;;;;;;;9.55;6.60;;;;;;;4.40;78.27;100615.66;5029824;28;20029;-21
2022/02/28 08:46:53;;;;;;;9.57;5.97;;;;;;;4.29;77.68;100609.88;5029499;28;20029;-20
2022/02/28 08:49:19;;;;;;;8.88;6.57;;;;;;;4.81;76.88;100591.84;5012057;28;20029;-20
2022/02/28 08:51:45;;;;;;;9.35;6.60;;;;;;;5.10;75.77;100592.28;5029661;28;20071;-20
2022/02/28 08:54:10;;;;;;;9.48;6.47;;;;;;;5.58;74.30;100607.13;5029827;28;20032;-20
2022/02/28 08:56:36;;;;;;;14.05;9.25;;;;;;;5.20;73.98;100603.47;5029786;28;20502;-20
2022/02/28 08:59:01;;;;;;;8.65;5.32;;;;;;;4.86;74.45;100617.75;5028969;28;20037;-20
2022/02/28 09:01:27;;;;;;;7.20;5.05;;;;;;;4.67;74.90;100612.84;5028641;28;20045;-20
2022/02/28 09:03:52;;;;;;;7.25;5.15;;;;;;;4.14;76.46;100601.78;5011738;28;20150;-20
2022/02/28 09:06:18;;;;;;;9.65;6.53;;;;;;;4.37;76.76;100613.38;5029601;28;20045;-21
2022/02/28 09:08:43;;;;;;;10.48;7.13;;;;;;;4.65;75.48;100620.94;5029508;28;20029;-20
2022/02/28 09:11:09;;;;;;;8.85;6.53;;;;;;;4.15;77.39;100606.09;5029333;28;20033;-20
2022/02/28 09:13:34;;;;;;;11.05;7.03;;;;;;;3.76;78.93;100598.75;5011340;28;20061;-21
2022/02/28 09:16:00;;;;;;;9.57;6.80;;;;;;;3.99;78.19;100583.97;5029530;28;20383;-20
2022/02/28 09:18:26;;;;;;;10.30;6.72;;;;;;;4.61;76.98;100609.06;5029575;28;20048;-20
2022/02/28 09:20:51;;;;;;;8.85;6.20;;;;;;;4.43;77.54;100602.16;5029102;28;20430;-20
2022/02/28 09:23:18;;;;;;;7.72;5.57;;;;;;;4.73;76.54;100618.28;5029076;28;20482;-21
2022/02/28 09:25:43;;;;;;;7.38;4.70;;;;;;;4.37;76.18;100613.38;5029450;28;20036;-20
2022/02/28 09:28:09;;;;;;;8.63;5.43;;;;;;;4.79;76.11;100612.34;5029198;28;20500;-21
2022/02/28 09:30:34;;;;;;;10.55;6.57;;;;;;;5.00;74.16;100617.06;5011488;28;20041;-20
2022/02/28 09:33:00;;;;;;;6.82;4.30;;;;;;;5.27;72.86;100615.03;5028907;28;20543;-21
2022/02/28 09:35:25;;;;;;;7.63;4.57;;;;;;;5.21;73.67;100605.97;5028982;28;20029;-20
2022/02/28 09:37:51;;;;;;;6.32;4.05;;;;;;;5.12;72.98;100620.19;5028913;28;20056;-20
2022/02/28 09:40:17;;;;;;;7.68;3.90;;;;;;;5.36;72.83;100615.84;5010962;28;20025;-21
2022/02/28 09:42:42;;;;;;;6.40;4.13;;;;;;;5.23;73.30;100611.06;5028637;28;20060;-20
2022/02/28 09:45:08;;;;;;;6.75;4.18;;;;;;;5.02;74.97;100606.34;4994475;28;20075;-20
2022/02/28 09:47:34;;;;;;;10.23;5.50;;;;;;;5.15;74.84;100606.66;5028784;28;20424;-21
2022/02/28 09:49:59;;;;;;;7.15;4.85;;;;;;;4.75;73.20;100594.34;5011424;28;20033;-20
2022/02/28 09:52:25;;;;;;;8.63;5.22;;;;;;;4.53;75.68;100601.94;5028575;28;20037;-20
2022/02/28 09:54:50;;;;;;;10.77;6.15;;;;;;;4.78;75.59;100586.06;5028554;28;20033;-20
2022/02/28 09:57:18;;;;;;;13.23;7.40;;;;;;;4.96;75.56;100607.00;5028617;28;20037;-20
2022/02/28 09:59:44;;;;;;;11.87;7.10;;;;;;;4.99;76.07;100580.25;5010795;28;20049;-20
2022/02/28 10:02:09;;;;;;;8.07;5.40;;;;;;;5.09;73.59;100599.41;5028422;28;20350;-21
2022/02/28 10:04:34;;;;;;;14.77;9.63;;;;;;;5.14;74.20;100604.16;5010373;28;20083;-20
2022/02/28 10:07:00;;;;;;;10.48;7.43;;;;;;;5.11;74.76;100594.75;5028066;28;20037;-20
2022/02/28 10:09:25;;;;;;;11.10;7.50;;;;;;;5.34;73.63;100570.22;5028398;28;20727;-20
2022/02/28 10:11:52;;;;;;;8.98;6.85;;;;;;;5.73;73.70;100588.69;5028021;28;20053;-20
2022/02/28 10:14:18;;;;;;;8.63;5.97;;;;;;;6.10;70.68;100589.00;5027958;28;20540;-20
2022/02/28 10:16:46;;;;;;;9.13;6.30;;;;;;;6.01;70.98;100588.25;5010608;28;20030;-20
2022/02/28 10:19:23;;;;;;;8.27;4.97;;;;;;;6.09;72.24;100588.19;5010471;28;20631;-20
2022/02/28 10:21:51;;;;;;;7.75;5.10;;;;;;;6.26;70.25;100583.56;4994895;28;20393;-20
2022/02/28 10:24:17;;;;;;;7.82;5.20;;;;;;;6.49;70.92;100602.09;5027974;28;20036;-21
2022/02/28 10:26:45;;;;;;;12.63;6.70;;;;;;;6.83;69.88;100580.41;5010266;28;20025;-20
2022/02/28 10:29:12;;;;;;;7.00;4.75;;;;;;;6.85;67.58;100577.56;5028043;28;20037;-20
2022/02/28 10:31:39;;;;;;;10.55;5.88;;;;;;;6.16;67.53;100575.88;5028103;28;20052;-20
2022/02/28 10:34:21;;;;;;;10.02;5.20;;;;;;;5.76;70.13;100592.81;5010470;28;20033;-20
2022/02/28 10:36:59;;;;;;;7.43;4.68;;;;;;;6.29;70.04;100588.50;5028058;28;20034;-20
2022/02/28 10:39:35;;;;;;;6.07;3.83;;;;;;;6.86;68.72;100579.19;5027998;28;20052;-20
2022/02/28 10:42:12;;;;;;;6.15;3.88;;;;;;;6.66;67.91;100583.38;5010651;28;20509;-20
2022/02/28 10:44:38;;;;;;;6.60;3.70;;;;;;;6.73;68.31;100566.59;5027764;28;20083;-20
2022/02/28 10:47:05;;;;;;;6.05;3.65;;;;;;;7.00;65.10;100585.53;5009870;28;20033;-19
2022/02/28 10:49:33;;;;;;;7.35;3.75;;;;;;;6.94;64.55;100579.13;5027617;28;20713;-20
2022/02/28 10:52:09;;;;;;;4.97;3.35;;;;;;;7.36;63.97;100584.78;5028009;28;20105;-20
2022/02/28 10:54:39;;;;;;;6.32;3.45;;;;;;;7.36;62.20;100576.84;5027645;28;20474;-22
2022/02/28 10:57:05;;;;;;;6.80;4.10;;;;;;;7.01;63.55;100555.38;5027628;28;20040;-19
2022/02/28 10:59:31;;;;;;;5.70;3.55;;;;;;;7.67;61.16;100576.56;5027678;28;20039;-20
2022/02/28 11:01:57;;;;;;;5.88;4.18;;;;;;;8.52;59.10;100571.47;5009665;28;20056;-20
2022/02/28 11:04:40;;;;;;;4.78;2.85;;;;;;;9.20;56.61;100575.19;5027738;28;20482;-20
2022/02/28 11:07:07;;;;;;;5.60;2.60;;;;;;;10.03;56.25;100588.38;5009843;28;20045;-19
2022/02/28 11:09:34;;;;;;;5.00;2.83;;;;;;;10.13;54.74;100582.63;5010013;28;20079;-20
2022/02/28 11:12:18;;;;;;;14.98;9.45;;;;;;;9.62;52.72;100588.47;5009560;28;20061;-20
2022/02/28 11:14:47;;;;;;;5.80;3.60;;;;;;;9.32;54.98;100585.28;5027506;28;20040;-20
2022/02/28 11:17:17;;;;;;;14.75;6.03;;;;;;;9.02;56.96;100585.53;5010287;28;20164;-20
2022/02/28 11:19:42;;;;;;;7.15;3.50;;;;;;;8.25;55.84;100576.53;5027596;28;20083;-20
2022/02/28 11:22:08;;;;;;;13.48;6.43;;;;;;;8.17;57.05;100603.22;5027501;28;20041;-20
2022/02/28 11:24:33;;;;;;;5.55;3.10;;;;;;;7.79;57.55;100590.19;5030609;28;20033;-20